createdAt,value
2022-11-17T00:04:36.803Z,21.09
2022-11-17T00:09:38.248Z,21.03
2022-11-17T00:14:41.143Z,21.08
2022-11-17T00:20:01.118Z,21.13
2022-11-17T00:25:02.492Z,21.12
2022-11-17T00:30:04.680Z,21.13
2022-11-17T00:35:06.419Z,21.11
2022-11-17T00:40:08.100Z,21.03
2022-11-17T00:45:09.881Z,21.14
2022-11-17T00:50:11.266Z,21.06
2022-11-17T00:55:12.671Z,21.11
2022-11-17T01:00:14.605Z,21.13
2022-11-17T01:05:16.026Z,21.11
2022-11-17T01:10:17.451Z,21.07
2022-11-17T01:15:18.832Z,21.03
2022-11-17T01:20:20.195Z,21.04
2022-11-17T01:25:21.600Z,21.05
2022-11-17T01:30:22.963Z,21.05
2022-11-17T01:35:24.380Z,21.08
2022-11-17T01:40:25.756Z,21.04
2022-11-17T01:45:27.127Z,21.07
2022-11-17T01:50:42.421Z,21.08
2022-11-17T01:55:48.670Z,21.07
2022-11-17T02:00:50.061Z,21.04
2022-11-17T02:06:05.383Z,21.08
2022-11-17T02:11:10.235Z,21.08
2022-11-17T02:16:12.494Z,21.14
2022-11-17T02:21:35.488Z,21.09
2022-11-17T02:26:56.800Z,21.06
2022-11-17T02:32:01.257Z,21.05
2022-11-17T02:37:19.020Z,21.02
2022-11-17T02:42:55.254Z,21.07
2022-11-17T02:47:56.632Z,21.07
2022-11-17T02:52:58.015Z,21.01
2022-11-17T02:57:59.403Z,21.10
2022-11-17T03:03:36.290Z,21.04
2022-11-17T03:08:44.711Z,21.00
2022-11-17T03:14:20.937Z,21.06
2022-11-17T03:19:33.277Z,21.08
2022-11-17T03:24:50.803Z,21.06
2022-11-17T03:29:54.335Z,21.09
2022-11-17T03:34:57.325Z,21.09
2022-11-17T03:40:01.657Z,21.05
2022-11-17T03:45:20.512Z,21.08
2022-11-17T03:50:25.060Z,21.02
2022-11-17T03:55:27.528Z,21.04
2022-11-17T04:00:28.895Z,21.03
2022-11-17T04:05:30.267Z,21.02
2022-11-17T04:10:31.648Z,21.03
2022-11-17T04:15:52.019Z,21.04
2022-11-17T04:20:54.648Z,21.02
2022-11-17T04:26:15.187Z,21.04
2022-11-17T04:31:18.064Z,21.12
2022-11-17T04:36:32.420Z,21.11
2022-11-17T04:41:52.789Z,21.08
2022-11-17T04:46:54.435Z,21.04
2022-11-17T04:51:55.816Z,21.07
2022-11-17T04:56:57.323Z,21.00
2022-11-17T05:02:04.180Z,21.09
2022-11-17T05:07:07.383Z,21.02
2022-11-17T05:12:27.312Z,21.01
2022-11-17T05:17:28.687Z,21.09
2022-11-17T05:22:48.391Z,21.05
2022-11-17T05:27:49.760Z,21.06
2022-11-17T05:32:51.148Z,21.07
2022-11-17T05:37:52.529Z,21.06
2022-11-17T05:42:57.101Z,21.12
2022-11-17T05:47:58.684Z,21.15
2022-11-17T05:53:00.053Z,21.13
2022-11-17T05:58:14.259Z,21.18
2022-11-17T06:03:18.118Z,21.22
2022-11-17T06:08:19.979Z,21.17
2022-11-17T06:13:25.943Z,21.23
2022-11-17T06:18:28.838Z,21.20
2022-11-17T06:23:31.196Z,21.19
2022-11-17T06:28:32.942Z,21.23
2022-11-17T06:33:34.545Z,21.20
2022-11-17T06:38:36.747Z,21.19
2022-11-17T06:43:38.920Z,21.19
2022-11-17T06:48:40.595Z,21.20
2022-11-17T06:53:42.004Z,21.21
2022-11-17T06:58:43.655Z,21.21
2022-11-17T07:03:45.032Z,21.21
2022-11-17T07:08:46.592Z,21.25
2022-11-17T07:13:47.982Z,21.16
2022-11-17T07:18:49.367Z,21.18
2022-11-17T07:23:50.731Z,21.17
2022-11-17T07:28:52.092Z,21.21
2022-11-17T07:33:53.824Z,21.26
2022-11-17T07:38:55.192Z,21.21
2022-11-17T07:43:56.589Z,21.16
2022-11-17T07:48:57.974Z,21.14
2022-11-17T07:53:59.365Z,21.18
2022-11-17T07:59:00.739Z,21.30
2022-11-17T08:04:02.187Z,21.28
2022-11-17T08:09:03.707Z,21.35
2022-11-17T08:14:05.183Z,21.39
2022-11-17T08:19:06.610Z,21.38
2022-11-17T08:24:08.028Z,21.35
2022-11-17T08:29:09.456Z,21.39
2022-11-17T08:34:10.815Z,21.44
2022-11-17T08:39:12.184Z,21.44
2022-11-17T08:44:13.586Z,21.47
2022-11-17T08:49:15.205Z,21.54
2022-11-17T08:54:16.571Z,21.48
2022-11-17T08:59:18.160Z,21.52
2022-11-17T09:04:19.534Z,21.55
2022-11-17T09:09:20.934Z,21.64
2022-11-17T09:14:22.378Z,21.64
2022-11-17T09:19:23.765Z,21.68
2022-11-17T09:24:26.557Z,21.69
2022-11-17T09:29:27.971Z,21.68
2022-11-17T09:34:29.498Z,21.68
2022-11-17T09:39:30.939Z,21.71
2022-11-17T09:44:40.596Z,21.67
2022-11-17T09:49:59.067Z,21.76
2022-11-17T09:55:04.427Z,21.71
2022-11-17T10:00:06.659Z,21.76
2022-11-17T10:05:15.198Z,21.71
2022-11-17T10:10:19.824Z,21.78
2022-11-17T10:15:27.903Z,21.75
2022-11-17T10:20:29.274Z,21.72
2022-11-17T10:25:38.634Z,21.59
2022-11-17T10:30:40.037Z,21.59
2022-11-17T10:35:45.934Z,21.47
2022-11-17T10:40:51.032Z,21.38
2022-11-17T10:45:53.991Z,21.41
2022-11-17T10:50:55.265Z,21.34
2022-11-17T10:56:07.417Z,21.32
2022-11-17T11:01:09.479Z,21.20
2022-11-17T11:06:22.573Z,21.26
2022-11-17T11:11:36.637Z,21.14
2022-11-17T11:16:38.032Z,21.09
2022-11-17T11:22:04.629Z,21.12
2022-11-17T11:27:27.745Z,21.04
2022-11-17T11:32:41.103Z,21.05
2022-11-17T11:43:07.931Z,21.01
2022-11-17T11:48:09.164Z,21.10
2022-11-17T11:53:37.391Z,21.23
2022-11-17T11:58:42.832Z,21.21
2022-11-17T12:04:09.337Z,21.32
2022-11-17T12:09:32.363Z,21.33
2022-11-17T12:14:35.523Z,21.29
2022-11-17T12:20:07.606Z,21.34
2022-11-17T12:25:29.056Z,21.21
2022-11-17T12:30:30.293Z,21.23
2022-11-17T12:35:32.821Z,21.30
2022-11-17T12:40:40.865Z,21.48
2022-11-17T12:46:06.814Z,21.44
2022-11-17T12:51:30.435Z,21.45
2022-11-17T12:56:50.432Z,21.33
2022-11-17T13:02:05.505Z,21.51
2022-11-17T13:07:08.047Z,21.53
2022-11-17T13:12:10.578Z,21.64
2022-11-17T13:17:12.263Z,21.67
2022-11-17T13:22:18.577Z,21.66
2022-11-17T13:27:24.439Z,21.64
2022-11-17T13:32:26.350Z,21.61
2022-11-17T13:37:28.339Z,21.62
2022-11-17T13:42:31.653Z,21.65
2022-11-17T13:47:35.981Z,21.67
2022-11-17T13:52:43.556Z,21.60
2022-11-17T13:58:06.796Z,21.74
2022-11-17T14:03:36.381Z,21.90
2022-11-17T14:08:38.644Z,21.88
2022-11-17T14:13:48.080Z,21.90
2022-11-17T14:19:01.546Z,21.91
2022-11-17T14:24:10.348Z,22.02
2022-11-17T14:29:12.418Z,21.77
2022-11-17T14:34:14.101Z,21.77
2022-11-17T14:39:16.810Z,21.74
2022-11-17T14:44:18.432Z,21.59
2022-11-17T14:49:19.837Z,21.57
2022-11-17T14:54:21.272Z,21.54
2022-11-17T14:59:22.649Z,21.48
2022-11-17T15:09:45.611Z,21.56
2022-11-17T15:14:47.429Z,21.55
2022-11-17T15:19:48.794Z,21.59
2022-11-17T15:24:50.159Z,21.52
2022-11-17T15:29:51.540Z,21.45
2022-11-17T15:34:52.939Z,21.48
2022-11-17T15:39:54.321Z,21.46
2022-11-17T15:44:55.704Z,21.52
2022-11-17T15:49:58.344Z,21.46
2022-11-17T15:54:59.755Z,21.46
2022-11-17T16:00:01.122Z,21.50
2022-11-17T16:05:02.556Z,21.53
2022-11-17T16:10:04.178Z,21.44
2022-11-17T16:15:06.232Z,21.46
2022-11-17T16:20:08.359Z,21.44
2022-11-17T16:25:10.338Z,21.51
2022-11-17T16:30:13.004Z,21.40
2022-11-17T16:35:14.385Z,21.46
2022-11-17T16:40:15.937Z,21.46
2022-11-17T16:45:17.353Z,21.40
2022-11-17T16:50:18.764Z,21.40
2022-11-17T16:55:20.132Z,21.39
2022-11-17T17:00:21.521Z,21.29
2022-11-17T17:05:26.038Z,21.30
2022-11-17T17:10:27.486Z,21.26
2022-11-17T17:15:28.852Z,21.30
2022-11-17T17:20:30.213Z,21.26
2022-11-17T17:25:32.476Z,21.18
2022-11-17T17:30:33.840Z,21.23
2022-11-17T17:35:35.242Z,21.25
2022-11-17T17:40:36.611Z,21.19
2022-11-17T17:45:37.984Z,21.21
2022-11-17T17:50:40.076Z,21.26
2022-11-17T17:55:41.475Z,21.21
2022-11-17T18:00:42.847Z,21.21
2022-11-17T18:05:44.230Z,21.14
2022-11-17T18:10:45.632Z,21.22
2022-11-17T18:15:47.045Z,21.27
2022-11-17T18:20:48.468Z,21.22
2022-11-17T18:25:49.847Z,21.14
2022-11-17T18:30:51.247Z,21.18
2022-11-17T18:35:52.709Z,21.19
2022-11-17T18:41:04.927Z,21.22
2022-11-17T18:46:08.171Z,21.29
2022-11-17T18:51:20.613Z,21.20
2022-11-17T18:56:23.943Z,21.16
2022-11-17T19:01:27.736Z,21.23
2022-11-17T19:06:29.185Z,21.08
2022-11-17T19:11:34.389Z,21.14
2022-11-17T19:16:44.013Z,21.23
2022-11-17T19:21:46.355Z,21.23
2022-11-17T19:26:47.740Z,21.16
2022-11-17T19:31:49.194Z,21.16
2022-11-17T19:36:50.567Z,21.16
2022-11-17T19:41:52.706Z,21.09
2022-11-17T19:46:54.064Z,21.12
2022-11-17T19:51:55.543Z,21.12
2022-11-17T19:56:56.914Z,21.18
2022-11-17T20:01:59.400Z,21.11
2022-11-17T20:07:00.854Z,21.19
2022-11-17T20:12:03.095Z,21.19
2022-11-17T20:17:04.460Z,21.20
2022-11-17T20:22:05.840Z,21.18
2022-11-17T20:27:07.198Z,21.19
2022-11-17T20:32:08.561Z,21.19
2022-11-17T20:37:09.923Z,21.14
2022-11-17T20:42:13.629Z,21.11
2022-11-17T20:47:14.993Z,21.14
2022-11-17T20:52:16.452Z,21.18
2022-11-17T20:57:18.289Z,21.17
2022-11-17T21:02:19.658Z,21.13
2022-11-17T21:07:21.094Z,21.14
2022-11-17T21:12:22.542Z,21.10
2022-11-17T21:17:42.632Z,21.13
2022-11-17T21:22:44.049Z,21.13
2022-11-17T21:27:45.412Z,21.22
2022-11-17T21:32:46.851Z,21.14
2022-11-17T21:37:48.239Z,21.18
2022-11-17T21:42:49.611Z,21.14
2022-11-17T21:47:53.959Z,21.18
2022-11-17T21:52:59.512Z,21.14
2022-11-17T21:58:00.973Z,21.15
2022-11-17T22:03:02.362Z,21.14
2022-11-17T22:08:03.763Z,21.07
2022-11-17T22:13:08.063Z,21.07
2022-11-17T22:18:09.424Z,21.16
2022-11-17T22:23:10.784Z,21.06
2022-11-17T22:28:12.152Z,21.08
2022-11-17T22:33:13.511Z,21.14
2022-11-17T22:38:15.347Z,21.16
2022-11-17T22:43:16.720Z,21.13
2022-11-17T22:48:18.084Z,21.18
2022-11-17T22:53:19.787Z,21.14
2022-11-17T22:58:21.147Z,21.12
2022-11-17T23:03:22.656Z,21.09
2022-11-17T23:08:24.059Z,21.12
2022-11-17T23:13:25.437Z,21.07
2022-11-17T23:18:26.815Z,21.16
2022-11-17T23:23:34.724Z,21.17
2022-11-17T23:28:37.079Z,21.12
2022-11-17T23:33:42.539Z,21.14
2022-11-17T23:38:44.191Z,21.13
2022-11-17T23:43:45.560Z,21.14
2022-11-17T23:48:46.955Z,21.12
2022-11-17T23:53:49.329Z,21.10
2022-11-17T23:58:50.760Z,21.14
